createdAt,value
2022-11-30T00:01:43.553Z,13.37
2022-11-30T00:07:32.666Z,12.56
2022-11-30T00:13:18.961Z,12.75
2022-11-30T00:18:57.112Z,13.49
2022-11-30T00:24:28.020Z,14.26
2022-11-30T00:35:40.309Z,13.43
2022-11-30T00:41:18.639Z,12.93
2022-11-30T00:46:42.902Z,13.82
2022-11-30T00:52:05.892Z,14.07
2022-11-30T00:57:58.856Z,14.86
2022-11-30T01:09:56.735Z,13.28
2022-11-30T01:16:15.855Z,12.54
2022-11-30T01:22:12.971Z,14.54
2022-11-30T01:28:31.487Z,14.20
2022-11-30T01:39:53.918Z,13.15
2022-11-30T01:45:20.033Z,12.52
2022-11-30T01:51:05.328Z,12.56
2022-11-30T02:02:44.771Z,11.81
2022-11-30T02:08:22.006Z,12.41
2022-11-30T02:13:58.678Z,12.13
2022-11-30T02:20:00.317Z,12.04
2022-11-30T02:26:04.147Z,11.16
2022-11-30T02:32:03.497Z,12.02
2022-11-30T02:43:35.407Z,11.58
2022-11-30T02:49:12.751Z,11.51
2022-11-30T02:54:50.105Z,11.96
2022-11-30T03:00:33.771Z,13.07
2022-11-30T03:06:15.046Z,13.03
2022-11-30T03:12:00.966Z,12.43
2022-11-30T03:17:47.980Z,13.13
2022-11-30T03:23:20.819Z,11.72
2022-11-30T03:28:54.411Z,12.34
2022-11-30T03:34:17.568Z,12.23
2022-11-30T03:39:42.873Z,12.03
2022-11-30T03:45:16.548Z,12.17
2022-11-30T03:50:50.938Z,12.52
2022-11-30T03:56:21.719Z,12.67
2022-11-30T04:01:52.083Z,12.62
2022-11-30T04:08:16.248Z,14.87
2022-11-30T04:13:51.034Z,12.02
2022-11-30T04:19:18.166Z,12.76
2022-11-30T04:24:55.532Z,12.41
2022-11-30T04:30:27.697Z,14.16
2022-11-30T04:36:00.155Z,13.71
2022-11-30T04:41:36.576Z,12.70
2022-11-30T04:47:14.961Z,12.37
2022-11-30T04:52:37.456Z,12.72
2022-11-30T04:58:08.856Z,13.58
2022-11-30T05:03:40.810Z,12.88
2022-11-30T05:09:11.258Z,13.49
2022-11-30T05:14:40.503Z,13.32
2022-11-30T05:20:06.267Z,13.84
2022-11-30T05:25:34.968Z,13.86
2022-11-30T05:31:01.015Z,13.40
2022-11-30T05:36:33.315Z,13.74
2022-11-30T05:41:58.398Z,14.48
2022-11-30T05:47:29.200Z,15.01
2022-11-30T05:52:53.469Z,14.25
2022-11-30T05:58:19.698Z,14.67
2022-11-30T06:03:44.961Z,14.19
2022-11-30T06:09:10.094Z,14.27
2022-11-30T06:14:32.308Z,13.64
2022-11-30T06:19:58.556Z,13.30
2022-11-30T06:25:23.179Z,13.90
2022-11-30T06:30:44.831Z,13.44
2022-11-30T06:36:10.093Z,14.02
2022-11-30T06:41:39.644Z,13.92
2022-11-30T06:47:03.383Z,13.59
2022-11-30T06:52:26.954Z,13.98
2022-11-30T06:57:51.122Z,13.94
2022-11-30T07:03:20.878Z,13.17
2022-11-30T07:08:42.291Z,13.15
2022-11-30T07:14:07.386Z,13.09
2022-11-30T07:19:30.810Z,13.95
2022-11-30T07:24:57.130Z,14.09
2022-11-30T07:30:21.235Z,14.50
2022-11-30T07:35:46.719Z,14.00
2022-11-30T07:41:13.382Z,13.99
2022-11-30T07:46:39.499Z,12.61
2022-11-30T07:52:05.335Z,13.97
2022-11-30T07:57:31.455Z,13.94
2022-11-30T08:02:54.067Z,13.61
2022-11-30T08:08:20.273Z,13.07
2022-11-30T08:13:46.649Z,13.64
2022-11-30T08:19:13.150Z,13.67
2022-11-30T08:24:38.849Z,13.41
2022-11-30T08:30:05.851Z,13.62
2022-11-30T08:35:33.454Z,13.98
2022-11-30T08:41:00.420Z,13.72
2022-11-30T08:46:50.344Z,12.81
2022-11-30T08:52:15.975Z,13.34
2022-11-30T08:57:10.169Z,12.82
2022-11-30T09:02:31.640Z,12.97
2022-11-30T09:07:54.193Z,13.72
2022-11-30T09:13:19.132Z,13.12
2022-11-30T09:18:40.844Z,13.09
2022-11-30T09:24:05.952Z,12.54
2022-11-30T09:29:32.657Z,12.78
2022-11-30T09:34:58.066Z,13.56
2022-11-30T09:40:20.377Z,13.84
2022-11-30T09:45:41.711Z,13.63
2022-11-30T09:51:07.451Z,12.76
2022-11-30T09:56:33.231Z,13.20
2022-11-30T10:01:59.440Z,12.75
2022-11-30T10:07:24.981Z,12.30
2022-11-30T10:12:55.826Z,13.53
2022-11-30T10:18:22.459Z,12.91
2022-11-30T10:23:45.314Z,12.98
2022-11-30T10:29:28.250Z,12.88
2022-11-30T10:34:50.920Z,13.39
2022-11-30T10:40:14.041Z,12.20
2022-11-30T10:45:40.974Z,12.80
2022-11-30T10:51:03.835Z,12.39
2022-11-30T10:56:27.313Z,12.42
2022-11-30T11:01:53.781Z,12.91
2022-11-30T11:07:19.745Z,13.98
2022-11-30T11:12:45.370Z,12.95
2022-11-30T11:18:14.603Z,13.35
2022-11-30T11:23:41.730Z,12.38
2022-11-30T11:29:07.936Z,11.83
2022-11-30T11:34:35.891Z,12.90
2022-11-30T11:40:01.811Z,11.28
2022-11-30T11:45:31.164Z,10.70
2022-11-30T11:51:07.859Z,9.37
2022-11-30T11:56:17.367Z,8.79
2022-11-30T12:01:43.068Z,8.75
2022-11-30T12:07:13.761Z,7.97
2022-11-30T12:12:42.627Z,7.24
2022-11-30T12:18:10.553Z,7.60
2022-11-30T12:23:28.707Z,8.06
2022-11-30T12:29:15.552Z,7.72
2022-11-30T12:34:45.762Z,8.31
2022-11-30T12:40:17.203Z,7.26
2022-11-30T12:45:46.020Z,7.53
2022-11-30T12:51:13.424Z,6.83
2022-11-30T12:56:45.890Z,6.53
2022-11-30T13:02:06.473Z,6.81
2022-11-30T13:07:39.830Z,7.20
2022-11-30T13:13:03.967Z,6.47
2022-11-30T13:18:26.997Z,6.35
2022-11-30T13:23:52.171Z,6.28
2022-11-30T13:29:16.759Z,6.49
2022-11-30T13:35:00.381Z,6.70
2022-11-30T13:40:51.420Z,6.60
2022-11-30T13:46:14.149Z,6.11
2022-11-30T13:51:40.466Z,5.35
2022-11-30T13:57:06.118Z,5.04
2022-11-30T14:02:37.241Z,5.45
2022-11-30T14:08:28.153Z,4.79
2022-11-30T14:13:50.624Z,5.47
2022-11-30T14:19:13.893Z,4.94
2022-11-30T14:24:40.805Z,4.54
2022-11-30T14:30:05.598Z,4.42
2022-11-30T14:35:34.596Z,3.78
2022-11-30T14:41:00.125Z,3.71
2022-11-30T14:46:23.202Z,4.15
2022-11-30T14:51:48.505Z,4.13
2022-11-30T14:57:15.376Z,3.85
2022-11-30T15:02:41.677Z,4.92
2022-11-30T15:08:03.555Z,4.79
2022-11-30T15:13:28.174Z,4.79
2022-11-30T15:18:55.127Z,3.82
2022-11-30T15:24:20.917Z,4.37
2022-11-30T15:29:47.496Z,4.11
2022-11-30T15:35:11.609Z,4.50
2022-11-30T15:40:39.509Z,6.03
2022-11-30T15:46:04.913Z,4.42
2022-11-30T15:51:52.015Z,4.27
2022-11-30T15:57:17.369Z,4.70
2022-11-30T16:02:41.021Z,4.56
2022-11-30T16:08:06.506Z,4.57
2022-11-30T16:13:35.322Z,4.69
2022-11-30T16:18:59.804Z,4.86
2022-11-30T16:24:25.348Z,5.01
2022-11-30T16:29:52.695Z,5.82
2022-11-30T16:35:16.725Z,5.84
2022-11-30T16:40:42.889Z,5.98
2022-11-30T16:46:06.997Z,6.11
2022-11-30T16:51:31.190Z,6.03
2022-11-30T16:56:54.161Z,6.17
2022-11-30T17:02:18.574Z,7.22
2022-11-30T17:07:44.157Z,7.26
2022-11-30T17:13:08.446Z,6.61
2022-11-30T17:18:30.516Z,7.02
2022-11-30T17:23:53.552Z,6.20
2022-11-30T17:29:17.045Z,6.14
2022-11-30T17:34:44.610Z,5.96
2022-11-30T17:40:09.161Z,5.69
2022-11-30T17:45:37.274Z,5.71
2022-11-30T17:51:03.993Z,4.97
2022-11-30T17:56:30.285Z,5.77
2022-11-30T18:01:55.333Z,4.95
2022-11-30T18:07:17.754Z,5.21
2022-11-30T18:12:41.626Z,5.60
2022-11-30T18:18:04.831Z,5.38
2022-11-30T18:23:30.520Z,7.76
2022-11-30T18:28:56.893Z,5.68
2022-11-30T18:34:22.656Z,5.47
2022-11-30T18:39:49.976Z,5.07
2022-11-30T18:45:13.457Z,4.75
2022-11-30T18:50:34.534Z,5.11
2022-11-30T18:55:57.822Z,9.86
2022-11-30T19:01:25.090Z,8.44
2022-11-30T19:06:46.107Z,6.78
2022-11-30T19:12:07.736Z,6.68
2022-11-30T19:17:28.843Z,6.47
2022-11-30T19:22:49.606Z,6.72
2022-11-30T19:28:12.880Z,6.72
2022-11-30T19:33:35.497Z,6.57
2022-11-30T19:38:58.494Z,5.74
2022-11-30T19:44:21.567Z,4.89
2022-11-30T19:49:43.551Z,4.25
2022-11-30T19:55:09.589Z,4.00
2022-11-30T20:00:36.484Z,4.64
2022-11-30T20:06:01.338Z,4.59
2022-11-30T20:11:28.539Z,4.02
2022-11-30T20:16:53.317Z,4.53
2022-11-30T20:22:20.160Z,5.07
2022-11-30T20:27:45.415Z,5.29
2022-11-30T20:33:09.196Z,5.16
2022-11-30T20:38:34.836Z,4.64
2022-11-30T20:43:57.197Z,5.18
2022-11-30T20:49:22.245Z,5.12
2022-11-30T20:54:47.273Z,5.79
2022-11-30T21:00:13.217Z,5.86
2022-11-30T21:05:38.129Z,6.01
2022-11-30T21:11:05.067Z,7.04
2022-11-30T21:16:29.089Z,7.04
2022-11-30T21:21:54.770Z,5.80
2022-11-30T21:27:21.419Z,6.04
2022-11-30T21:32:45.221Z,5.33
2022-11-30T21:38:07.570Z,6.28
2022-11-30T21:43:33.550Z,6.45
2022-11-30T21:48:56.640Z,6.13
2022-11-30T21:54:22.062Z,5.46
2022-11-30T21:59:47.204Z,5.88
2022-11-30T22:05:13.447Z,5.96
2022-11-30T22:10:37.203Z,5.94
2022-11-30T22:15:59.988Z,5.75
2022-11-30T22:21:23.867Z,6.17
2022-11-30T22:26:44.443Z,6.11
2022-11-30T22:32:09.981Z,5.86
2022-11-30T22:37:34.604Z,4.73
2022-11-30T22:43:01.010Z,4.72
2022-11-30T22:48:28.014Z,4.70
2022-11-30T22:53:54.877Z,4.75
2022-11-30T22:59:21.226Z,4.46
2022-11-30T23:04:48.973Z,4.73
2022-11-30T23:10:10.516Z,4.45
2022-11-30T23:15:35.177Z,5.52
2022-11-30T23:21:00.643Z,4.80
2022-11-30T23:26:28.723Z,5.13
2022-11-30T23:31:55.828Z,4.81
2022-11-30T23:37:18.242Z,5.48
2022-11-30T23:42:42.276Z,5.09
2022-11-30T23:48:05.506Z,5.22
2022-11-30T23:53:29.573Z,4.97
2022-11-30T23:58:56.914Z,4.95
